Elk City, OK (73644)

7:13 PM CDT on August 03, 2015 (GMT -0500)
Clinton-Sherman | | Change Station
CLOSE
Current Station
Airport
Location: Clinton-Sherman,
Elevation: 1923 ft
Nearby Weather Stations

Elev 1923 ft 35.34 °N, 99.20 °W | Updated 20 minutes ago

Partly Cloudy
Partly Cloudy
87 °F
Feels Like 91 °F
N
9
Wind Variable Wind from SE

Today
High -- | Low -- °F
--% Chance of Precip.
Yesterday
High -- | Low -- °F
Precip. -- in
6:47 AM 8:39 PM
Waning Gibbous, 83% visible
Pressure 29.86 in
Visibility 10.0 miles
Clouds Mostly Cloudy 10000 ft
Heat Index 91 °F
Dew Point 69 °F
Humidity 55%
Rainfall 0.19 in
Snow Depth Not available.
UV 1 out of 12
Pollen 6.40 out of 12
Air Quality Not available.
Flu Activity Not available.
METAR KCSM 032353Z 14008KT 10SM BKN100 31/21 A2994 RMK AO2 SLP112 T03060206 10311 20267 58010

More Conditions Fewer Conditions

Pressure 29.86 in
Visibility 10.0 miles
Clouds Mostly Cloudy 10000 ft
Heat Index 91 °F
Dew Point 69 °F
Humidity 55%
Rainfall 0.19 in
Snow Depth Not available.
UV 1 out of 12
Pollen 6.40 out of 12
Air Quality Not available.
Flu Activity Not available.
METAR KCSM 032353Z 14008KT 10SM BKN100 31/21 A2994 RMK AO2 SLP112 T03060206 10311 20267 58010

More Conditions Fewer Conditions

10-Day Weather Forecast

×

Almanac

Astronomy

Aug. 03, 2015 Rise Set
Actual Time
Civil Twilight
Nautical Twilight
Astronomical Twilight
Moon
Length of Visible Light
Length of Day
Tomorrow will be .
, % of the Moon is Illuminated

Today's Extremes

State Highs State Lows

Community

WunderPhotos

Upload Photos

1,843,788 photos uploaded!

WunderBlogs® & News

Nearby

Air Quality

  Air Quality AQ Index Pollutant
Not available.

Snow Depth

Station Depth Elevation

Earthquake Activity

City Distance Mag. Time & Date
Minimum magnitude displayed is 2.5.

Coastal Water Temperatures

Place Temperature

Stations

Nearby Weather Stations

Station Location Temp. Windchill Dew Point Humidity Wind Precip. Elev Updated Type